Flugplatz Lachen-Speyerdorf Airport

Für Lachen-Speyerdorf Airport sind keine METAR/TAF Berichte vorhanden.
Es werden die Flugwettermeldungen vom Flugplatz Mannheim-City Airport in 27 km Entfernung angezeigt.

Bericht für EDFM

vom 18.07. um 13:20 UTC

Wind 4 kt aus 100°

Sichtweite 9700 m

gute Sicht, keine Wolken < 5000 ft, keine CB, keine Wettererscheinungen (CAVOK)

Temperatur 29°C

Taupunkt 13°C

Luftfeuchtigkeit 37%

Luftdruck 1021 hPa

EDFM 181320Z 10004KT 040V160 CAVOK 29/13 Q1021

Prognose für EDFM

vom 18.07. um 11:00 UTC

Zwischen 12:00 UTC und 21:00 UTC

Wind 4 kt aus 10°

Sichtweite 9700 m

gering bewölkt in 4000 ft

TAF EDFM 181100Z 1812/1821 01004KT 9999 FEW040
Impressum